createdAt,value
2019-04-20T00:01:29.261Z,99.90
2019-04-20T00:06:38.265Z,99.90
2019-04-20T00:11:49.395Z,99.90
2019-04-20T00:16:44.245Z,99.90
2019-04-20T00:21:58.364Z,99.90
2019-04-20T00:27:19.600Z,99.90
2019-04-20T00:32:15.562Z,99.90
2019-04-20T00:37:12.910Z,99.90
2019-04-20T00:42:19.849Z,99.90
2019-04-20T00:47:37.568Z,99.90
2019-04-20T00:52:47.028Z,99.90
2019-04-20T00:57:46.689Z,99.90
2019-04-20T01:02:56.610Z,99.90
2019-04-20T01:08:06.929Z,99.90
2019-04-20T01:13:18.392Z,99.90
2019-04-20T01:18:19.496Z,99.90
2019-04-20T01:23:34.609Z,99.90
2019-04-20T01:28:46.396Z,99.90
2019-04-20T01:33:51.939Z,99.90
2019-04-20T01:38:56.459Z,99.90
2019-04-20T01:43:52.249Z,99.90
2019-04-20T01:49:00.216Z,99.90
2019-04-20T01:54:24.961Z,99.90
2019-04-20T01:59:51.537Z,99.90
2019-04-20T02:04:52.536Z,99.90
2019-04-20T02:10:03.055Z,99.90
2019-04-20T02:15:09.094Z,99.90
2019-04-20T02:20:36.223Z,99.90
2019-04-20T02:25:18.624Z,99.90
2019-04-20T02:31:04.998Z,99.90
2019-04-20T02:41:29.643Z,99.90
2019-04-20T02:46:31.609Z,99.90
2019-04-20T02:51:44.971Z,99.90
2019-04-20T02:56:47.678Z,99.90
2019-04-20T03:01:58.036Z,99.90
2019-04-20T03:06:39.753Z,99.90
2019-04-20T03:17:04.369Z,99.90
2019-04-20T03:22:16.100Z,99.90
2019-04-20T03:27:27.578Z,99.90
2019-04-20T03:33:02.413Z,99.90
2019-04-20T03:37:48.529Z,99.90
2019-04-20T03:42:35.517Z,99.90
2019-04-20T03:47:52.944Z,99.90
2019-04-20T03:53:19.583Z,99.90
2019-04-20T03:58:50.408Z,99.90
2019-04-20T04:04:16.903Z,99.90
2019-04-20T04:09:15.034Z,99.90
2019-04-20T04:14:07.891Z,99.90
2019-04-20T04:19:21.551Z,99.90
2019-04-20T04:24:29.194Z,99.90
2019-04-20T04:29:47.130Z,99.90
2019-04-20T04:34:51.452Z,99.90
2019-04-20T04:40:05.032Z,99.90
2019-04-20T04:44:53.656Z,99.90
2019-04-20T04:49:59.984Z,99.90
2019-04-20T04:55:11.086Z,99.90
2019-04-20T05:00:10.233Z,99.90
2019-04-20T05:05:35.602Z,99.90
2019-04-20T05:10:26.638Z,99.90
2019-04-20T05:15:46.258Z,99.90
2019-04-20T05:21:00.306Z,99.90
2019-04-20T05:26:25.625Z,99.90
2019-04-20T05:31:11.361Z,99.90
2019-04-20T05:36:38.474Z,99.90
2019-04-20T05:41:41.926Z,99.90
2019-04-20T05:46:47.650Z,99.90
2019-04-20T05:51:56.139Z,99.90
2019-04-20T05:57:05.436Z,99.90
2019-04-20T06:02:09.678Z,99.90
2019-04-20T06:07:18.448Z,99.90
2019-04-20T06:12:20.094Z,99.90
2019-04-20T06:17:49.333Z,99.90
2019-04-20T06:22:57.172Z,99.90
2019-04-20T06:28:05.216Z,99.90
2019-04-20T06:34:01.230Z,99.90
2019-04-20T06:39:02.190Z,99.90
2019-04-20T06:44:02.552Z,99.90
2019-04-20T06:49:10.125Z,99.90
2019-04-20T06:54:42.126Z,99.90
2019-04-20T06:59:47.390Z,99.90
2019-04-20T07:04:57.643Z,99.90
2019-04-20T07:14:59.029Z,99.90
2019-04-20T07:20:35.123Z,99.90
2019-04-20T07:25:37.507Z,99.90
2019-04-20T07:30:46.452Z,99.90
2019-04-20T07:35:52.388Z,99.90
2019-04-20T07:40:55.802Z,99.90
2019-04-20T07:46:13.163Z,99.90
2019-04-20T07:50:57.965Z,99.90
2019-04-20T07:56:19.027Z,99.90
2019-04-20T08:01:54.804Z,99.90
2019-04-20T08:06:42.082Z,99.90
2019-04-20T08:12:07.460Z,99.90
2019-04-20T08:22:15.520Z,96.10
2019-04-20T08:27:07.669Z,92.60
2019-04-20T08:32:34.665Z,91.20
2019-04-20T08:37:48.914Z,86.90
2019-04-20T08:43:00.540Z,88.70
2019-04-20T08:47:56.625Z,84.40
2019-04-20T08:57:49.452Z,84.20
2019-04-20T09:03:00.903Z,85.90
2019-04-20T09:08:12.289Z,79.10
2019-04-20T09:13:18.600Z,79.10
2019-04-20T09:18:26.264Z,74.40
2019-04-20T09:23:49.685Z,73.40
2019-04-20T09:28:54.326Z,70.30
2019-04-20T09:34:14.484Z,67.60
2019-04-20T09:39:32.656Z,66.90
2019-04-20T09:44:39.804Z,66.40
2019-04-20T09:49:51.870Z,68.50
2019-04-20T09:55:04.309Z,65.10
2019-04-20T10:00:12.056Z,63.70
2019-04-20T10:05:01.989Z,66.50
2019-04-20T10:10:18.838Z,63.90
2019-04-20T10:15:19.616Z,65.60
2019-04-20T10:20:27.548Z,63.00
2019-04-20T10:25:28.687Z,60.80
2019-04-20T10:30:36.657Z,64.00
2019-04-20T10:35:41.360Z,61.50
2019-04-20T10:40:59.684Z,62.40
2019-04-20T10:45:53.297Z,59.20
2019-04-20T10:50:58.922Z,57.60
2019-04-20T10:56:05.315Z,57.00
2019-04-20T11:01:11.550Z,56.70
2019-04-20T11:06:16.827Z,58.00
2019-04-20T11:11:26.775Z,58.20
2019-04-20T11:16:30.630Z,56.20
2019-04-20T11:21:36.390Z,55.50
2019-04-20T11:26:43.163Z,53.90
2019-04-20T11:31:51.551Z,54.20
2019-04-20T11:36:55.139Z,52.10
2019-04-20T11:42:01.588Z,52.40
2019-04-20T11:47:06.816Z,53.60
2019-04-20T11:52:13.277Z,54.20
2019-04-20T11:57:21.565Z,55.30
2019-04-20T12:02:44.075Z,55.40
2019-04-20T12:08:02.876Z,57.70
2019-04-20T12:13:09.792Z,56.80
2019-04-20T12:18:15.762Z,56.70
2019-04-20T12:23:22.356Z,54.80
2019-04-20T12:28:29.539Z,53.00
2019-04-20T12:33:35.148Z,49.60
2019-04-20T12:38:41.313Z,47.20
2019-04-20T12:43:47.651Z,45.40
2019-04-20T12:48:53.532Z,45.40
2019-04-20T12:53:58.898Z,46.20
2019-04-20T12:59:05.390Z,45.30
2019-04-20T13:04:12.052Z,43.50
2019-04-20T13:09:18.733Z,42.40
2019-04-20T13:14:46.411Z,42.70
2019-04-20T13:19:53.259Z,42.10
2019-04-20T13:24:58.972Z,39.50
2019-04-20T13:30:05.085Z,39.50
2019-04-20T13:35:12.074Z,39.20
2019-04-20T13:40:18.170Z,39.30
2019-04-20T13:45:24.670Z,37.20
2019-04-20T13:50:30.126Z,37.90
2019-04-20T13:55:35.957Z,37.40
2019-04-20T14:01:12.590Z,36.70
2019-04-20T14:06:18.417Z,36.50
2019-04-20T14:11:23.514Z,37.00
2019-04-20T14:16:29.327Z,37.60
2019-04-20T14:21:34.476Z,36.80
2019-04-20T14:26:41.197Z,36.60
2019-04-20T14:31:46.187Z,36.80
2019-04-20T14:36:51.371Z,37.90
2019-04-20T14:41:56.632Z,36.40
2019-04-20T14:47:01.667Z,36.40
2019-04-20T14:52:08.072Z,36.60
2019-04-20T14:57:13.765Z,35.70
2019-04-20T15:02:21.651Z,34.40
2019-04-20T15:07:27.122Z,34.80
2019-04-20T15:12:44.468Z,35.00
2019-04-20T15:17:43.755Z,35.80
2019-04-20T15:22:51.555Z,35.80
2019-04-20T15:27:56.832Z,37.60
2019-04-20T15:33:03.118Z,35.60
2019-04-20T15:38:09.105Z,37.40
2019-04-20T15:43:18.069Z,35.70
2019-04-20T15:48:21.947Z,38.00
2019-04-20T15:53:27.353Z,36.60
2019-04-20T15:58:32.440Z,38.80
2019-04-20T16:03:45.571Z,40.70
2019-04-20T16:08:54.452Z,42.20
2019-04-20T16:14:00.222Z,41.70
2019-04-20T16:19:11.954Z,41.80
2019-04-20T16:24:16.773Z,42.90
2019-04-20T16:29:22.052Z,42.10
2019-04-20T16:34:27.607Z,42.30
2019-04-20T16:39:32.800Z,43.50
2019-04-20T16:44:38.902Z,43.90
2019-04-20T16:49:46.635Z,44.10
2019-04-20T16:54:51.914Z,45.40
2019-04-20T17:00:03.213Z,44.90
2019-04-20T17:05:09.400Z,44.40
2019-04-20T17:10:17.669Z,44.20
2019-04-20T17:15:23.749Z,44.20
2019-04-20T17:20:30.681Z,44.80
2019-04-20T17:25:35.766Z,44.90
2019-04-20T17:31:00.903Z,44.00
2019-04-20T17:36:14.454Z,43.70
2019-04-20T17:41:38.528Z,42.10
2019-04-20T17:46:35.814Z,43.10
2019-04-20T17:51:52.335Z,42.20
2019-04-20T17:56:38.367Z,42.90
2019-04-20T18:02:20.427Z,44.00
2019-04-20T18:07:41.101Z,44.90
2019-04-20T18:12:34.431Z,45.80
2019-04-20T18:18:08.412Z,46.30
2019-04-20T18:22:58.772Z,47.50
2019-04-20T18:28:20.942Z,49.10
2019-04-20T18:33:13.688Z,50.10
2019-04-20T18:38:20.152Z,51.30
2019-04-20T18:43:27.957Z,51.20
2019-04-20T18:48:52.343Z,52.30
2019-04-20T18:53:42.928Z,53.30
2019-04-20T18:58:45.551Z,55.10
2019-04-20T19:03:51.967Z,57.20
2019-04-20T19:08:58.879Z,58.30
2019-04-20T19:14:31.307Z,59.50
2019-04-20T19:19:39.930Z,60.60
2019-04-20T19:24:42.839Z,61.30
2019-04-20T19:29:58.938Z,61.60
2019-04-20T19:35:01.583Z,62.80
2019-04-20T19:40:13.127Z,63.20
2019-04-20T19:45:40.024Z,63.70
2019-04-20T19:50:54.758Z,63.80
2019-04-20T19:55:40.446Z,64.50
2019-04-20T20:00:58.188Z,65.10
2019-04-20T20:06:02.115Z,65.30
2019-04-20T20:11:11.969Z,66.80
2019-04-20T20:16:24.417Z,68.00
2019-04-20T20:21:32.909Z,70.20
2019-04-20T20:26:33.472Z,73.10
2019-04-20T20:31:52.813Z,76.70
2019-04-20T20:36:48.588Z,81.90
2019-04-20T20:41:59.369Z,88.50
2019-04-20T20:47:05.973Z,93.50
2019-04-20T20:52:26.350Z,98.90
2019-04-20T20:57:15.326Z,99.90
2019-04-20T21:02:23.653Z,99.90
2019-04-20T21:07:24.717Z,99.90
2019-04-20T21:12:30.585Z,99.90
2019-04-20T21:17:49.191Z,99.90
2019-04-20T21:23:01.389Z,99.90
2019-04-20T21:27:50.817Z,99.90
2019-04-20T21:33:01.522Z,99.90
2019-04-20T21:38:07.730Z,99.90
2019-04-20T21:43:11.328Z,99.90
2019-04-20T21:48:35.033Z,99.90
2019-04-20T21:53:29.536Z,99.90
2019-04-20T21:58:35.438Z,99.90
2019-04-20T22:03:38.304Z,99.90
2019-04-20T22:08:50.026Z,99.90
2019-04-20T22:13:51.683Z,99.90
2019-04-20T22:19:14.647Z,99.90
2019-04-20T22:24:19.520Z,99.90
2019-04-20T22:29:12.081Z,99.90
2019-04-20T22:34:21.396Z,99.90
2019-04-20T22:39:32.244Z,99.90
2019-04-20T22:44:36.183Z,99.90
2019-04-20T22:49:52.812Z,99.90
2019-04-20T22:55:12.407Z,99.90
2019-04-20T23:00:03.503Z,99.90
2019-04-20T23:05:02.693Z,99.90
2019-04-20T23:10:08.962Z,99.90
2019-04-20T23:15:16.298Z,99.90
2019-04-20T23:20:26.943Z,99.90
2019-04-20T23:25:29.296Z,99.90
2019-04-20T23:30:38.810Z,99.90
2019-04-20T23:35:43.726Z,99.90
2019-04-20T23:40:47.893Z,99.90
2019-04-20T23:46:31.076Z,99.90
2019-04-20T23:51:54.005Z,99.90
2019-04-20T23:56:41.666Z,99.90
